sensor_id;sensor_type;location;lat;lon;timestamp;pressure;altitude;pressure_sealevel;temperature;humidity
66396;BME280;53207;51.378;-1.342;2023-02-19T00:01:47;100967.16;;;19.72;40.77
66396;BME280;53207;51.378;-1.342;2023-02-19T00:04:16;100960.70;;;19.52;40.43
66396;BME280;53207;51.378;-1.342;2023-02-19T00:06:47;100958.06;;;19.67;41.00
66396;BME280;53207;51.378;-1.342;2023-02-19T00:09:17;100960.91;;;19.67;41.49
66396;BME280;53207;51.378;-1.342;2023-02-19T00:11:45;100959.95;;;19.78;41.41
66396;BME280;53207;51.378;-1.342;2023-02-19T00:14:15;100962.55;;;19.46;41.15
66396;BME280;53207;51.378;-1.342;2023-02-19T00:16:43;100969.35;;;19.92;41.08
66396;BME280;53207;51.378;-1.342;2023-02-19T00:19:13;100973.07;;;19.50;41.04
66396;BME280;53207;51.378;-1.342;2023-02-19T00:21:40;100980.87;;;19.58;41.09
66396;BME280;53207;51.378;-1.342;2023-02-19T00:24:10;100993.28;;;19.55;40.99
66396;BME280;53207;51.378;-1.342;2023-02-19T00:26:39;101000.85;;;19.35;40.76
66396;BME280;53207;51.378;-1.342;2023-02-19T00:29:06;101006.65;;;19.48;40.96
66396;BME280;53207;51.378;-1.342;2023-02-19T00:31:34;101005.86;;;19.49;40.69
66396;BME280;53207;51.378;-1.342;2023-02-19T00:34:04;101005.08;;;19.47;40.68
66396;BME280;53207;51.378;-1.342;2023-02-19T00:36:32;101013.77;;;19.69;40.62
66396;BME280;53207;51.378;-1.342;2023-02-19T00:39:00;101020.59;;;19.70;40.57
66396;BME280;53207;51.378;-1.342;2023-02-19T00:41:27;101018.09;;;19.56;40.68
66396;BME280;53207;51.378;-1.342;2023-02-19T00:43:56;101010.98;;;19.59;40.60
66396;BME280;53207;51.378;-1.342;2023-02-19T00:46:25;101003.62;;;19.50;40.69
66396;BME280;53207;51.378;-1.342;2023-02-19T00:48:53;101003.60;;;19.51;40.51
66396;BME280;53207;51.378;-1.342;2023-02-19T00:51:21;101005.77;;;19.46;40.55
66396;BME280;53207;51.378;-1.342;2023-02-19T00:53:48;101011.40;;;19.49;40.43
66396;BME280;53207;51.378;-1.342;2023-02-19T00:56:15;101011.42;;;19.24;40.44
66396;BME280;53207;51.378;-1.342;2023-02-19T00:58:42;101008.45;;;19.44;40.43
66396;BME280;53207;51.378;-1.342;2023-02-19T01:01:10;101003.76;;;19.48;40.25
66396;BME280;53207;51.378;-1.342;2023-02-19T01:03:39;101010.52;;;19.42;40.28
66396;BME280;53207;51.378;-1.342;2023-02-19T01:06:08;101012.31;;;19.41;40.25
66396;BME280;53207;51.378;-1.342;2023-02-19T01:08:37;101019.08;;;19.27;40.04
66396;BME280;53207;51.378;-1.342;2023-02-19T01:11:06;101031.22;;;19.53;39.86
66396;BME280;53207;51.378;-1.342;2023-02-19T01:13:35;101033.50;;;19.50;39.86
66396;BME280;53207;51.378;-1.342;2023-02-19T01:16:03;101033.49;;;19.44;39.95
66396;BME280;53207;51.378;-1.342;2023-02-19T01:18:31;101040.30;;;19.48;39.80
66396;BME280;53207;51.378;-1.342;2023-02-19T01:20:58;101040.87;;;19.41;39.95
66396;BME280;53207;51.378;-1.342;2023-02-19T01:23:26;101033.58;;;19.61;39.89
66396;BME280;53207;51.378;-1.342;2023-02-19T01:25:53;101031.05;;;19.39;39.80
66396;BME280;53207;51.378;-1.342;2023-02-19T01:28:20;101037.47;;;19.31;39.89
66396;BME280;53207;51.378;-1.342;2023-02-19T01:30:48;101036.28;;;19.40;39.66
66396;BME280;53207;51.378;-1.342;2023-02-19T01:33:15;101033.84;;;19.27;39.82
66396;BME280;53207;51.378;-1.342;2023-02-19T01:35:42;101035.67;;;19.23;39.83
66396;BME280;53207;51.378;-1.342;2023-02-19T01:38:09;101035.26;;;19.16;39.88
66396;BME280;53207;51.378;-1.342;2023-02-19T01:40:37;101039.09;;;19.48;39.79
66396;BME280;53207;51.378;-1.342;2023-02-19T01:43:08;101039.42;;;19.21;39.72
66396;BME280;53207;51.378;-1.342;2023-02-19T01:45:43;101036.41;;;19.22;39.61
66396;BME280;53207;51.378;-1.342;2023-02-19T01:48:13;101035.10;;;19.25;39.56
66396;BME280;53207;51.378;-1.342;2023-02-19T01:50:44;101034.99;;;19.15;39.63
66396;BME280;53207;51.378;-1.342;2023-02-19T01:53:16;101033.59;;;19.07;39.70
66396;BME280;53207;51.378;-1.342;2023-02-19T01:55:47;101027.68;;;19.13;39.57
66396;BME280;53207;51.378;-1.342;2023-02-19T01:58:17;101028.54;;;19.43;39.45
66396;BME280;53207;51.378;-1.342;2023-02-19T02:00:44;101029.74;;;19.08;39.50
66396;BME280;53207;51.378;-1.342;2023-02-19T02:03:12;101037.31;;;19.10;39.45
66396;BME280;53207;51.378;-1.342;2023-02-19T02:05:45;101043.38;;;19.12;39.38
66396;BME280;53207;51.378;-1.342;2023-02-19T02:08:17;101047.43;;;19.23;39.57
66396;BME280;53207;51.378;-1.342;2023-02-19T02:10:44;101043.17;;;19.05;39.38
66396;BME280;53207;51.378;-1.342;2023-02-19T02:13:11;101042.15;;;18.78;39.41
66396;BME280;53207;51.378;-1.342;2023-02-19T02:15:45;101044.22;;;19.03;39.32
66396;BME280;53207;51.378;-1.342;2023-02-19T02:18:25;101050.99;;;18.92;39.43
66396;BME280;53207;51.378;-1.342;2023-02-19T02:21:09;101054.85;;;19.09;39.58
66396;BME280;53207;51.378;-1.342;2023-02-19T02:23:56;101057.53;;;19.24;39.29
66396;BME280;53207;51.378;-1.342;2023-02-19T02:26:39;101061.05;;;18.90;39.37
66396;BME280;53207;51.378;-1.342;2023-02-19T02:29:34;101062.07;;;18.91;39.31
66396;BME280;53207;51.378;-1.342;2023-02-19T02:32:07;101063.59;;;18.91;39.24
66396;BME280;53207;51.378;-1.342;2023-02-19T02:34:42;101061.27;;;19.14;39.27
66396;BME280;53207;51.378;-1.342;2023-02-19T02:37:10;101069.26;;;18.88;39.18
66396;BME280;53207;51.378;-1.342;2023-02-19T02:39:38;101069.43;;;19.13;39.18
66396;BME280;53207;51.378;-1.342;2023-02-19T02:42:06;101070.03;;;19.31;39.22
66396;BME280;53207;51.378;-1.342;2023-02-19T02:44:34;101064.50;;;19.10;39.15
66396;BME280;53207;51.378;-1.342;2023-02-19T02:47:03;101059.63;;;18.75;39.24
66396;BME280;53207;51.378;-1.342;2023-02-19T02:49:33;101061.34;;;18.80;39.14
66396;BME280;53207;51.378;-1.342;2023-02-19T02:52:01;101060.56;;;19.03;39.15
66396;BME280;53207;51.378;-1.342;2023-02-19T02:54:32;101059.41;;;19.00;39.17
66396;BME280;53207;51.378;-1.342;2023-02-19T02:57:00;101062.07;;;18.71;39.19
66396;BME280;53207;51.378;-1.342;2023-02-19T02:59:33;101063.75;;;18.90;39.27
66396;BME280;53207;51.378;-1.342;2023-02-19T03:02:05;101062.40;;;18.63;39.22
66396;BME280;53207;51.378;-1.342;2023-02-19T03:04:37;101058.51;;;18.97;39.08
66396;BME280;53207;51.378;-1.342;2023-02-19T03:07:08;101069.88;;;18.94;39.09
66396;BME280;53207;51.378;-1.342;2023-02-19T03:09:40;101066.08;;;18.88;39.17
66396;BME280;53207;51.378;-1.342;2023-02-19T03:12:11;101061.01;;;18.92;39.06
66396;BME280;53207;51.378;-1.342;2023-02-19T03:14:44;101069.54;;;18.93;39.02
66396;BME280;53207;51.378;-1.342;2023-02-19T03:17:18;101078.01;;;18.90;39.02
66396;BME280;53207;51.378;-1.342;2023-02-19T03:19:51;101083.44;;;18.90;38.99
66396;BME280;53207;51.378;-1.342;2023-02-19T03:22:22;101082.08;;;18.85;39.05
66396;BME280;53207;51.378;-1.342;2023-02-19T03:24:55;101079.27;;;18.63;38.96
66396;BME280;53207;51.378;-1.342;2023-02-19T03:27:25;101076.45;;;18.81;39.05
66396;BME280;53207;51.378;-1.342;2023-02-19T03:29:56;101083.85;;;19.04;39.04
66396;BME280;53207;51.378;-1.342;2023-02-19T03:32:28;101089.80;;;18.76;39.06
66396;BME280;53207;51.378;-1.342;2023-02-19T03:35:00;101100.32;;;19.08;38.92
66396;BME280;53207;51.378;-1.342;2023-02-19T03:37:33;101106.86;;;18.78;38.99
66396;BME280;53207;51.378;-1.342;2023-02-19T03:40:03;101109.77;;;18.75;38.99
66396;BME280;53207;51.378;-1.342;2023-02-19T03:42:37;101110.26;;;18.75;38.98
66396;BME280;53207;51.378;-1.342;2023-02-19T03:45:19;101116.32;;;18.77;38.95
66396;BME280;53207;51.378;-1.342;2023-02-19T03:47:53;101115.43;;;18.95;38.97
66396;BME280;53207;51.378;-1.342;2023-02-19T03:50:27;101105.92;;;19.02;38.80
66396;BME280;53207;51.378;-1.342;2023-02-19T03:53:01;101105.84;;;19.02;38.79
66396;BME280;53207;51.378;-1.342;2023-02-19T03:55:35;101108.63;;;18.67;38.91
66396;BME280;53207;51.378;-1.342;2023-02-19T03:58:10;101126.40;;;18.96;38.81
66396;BME280;53207;51.378;-1.342;2023-02-19T04:00:43;101142.41;;;18.42;38.85
66396;BME280;53207;51.378;-1.342;2023-02-19T04:03:22;101143.24;;;18.94;38.77
66396;BME280;53207;51.378;-1.342;2023-02-19T04:05:55;101143.18;;;18.77;38.69
66396;BME280;53207;51.378;-1.342;2023-02-19T04:08:26;101141.48;;;18.60;38.91
66396;BME280;53207;51.378;-1.342;2023-02-19T04:10:54;101142.34;;;18.62;38.85
66396;BME280;53207;51.378;-1.342;2023-02-19T04:13:25;101145.09;;;18.81;38.86
66396;BME280;53207;51.378;-1.342;2023-02-19T04:15:56;101149.44;;;18.68;38.71
66396;BME280;53207;51.378;-1.342;2023-02-19T04:18:30;101148.36;;;18.85;38.76
66396;BME280;53207;51.378;-1.342;2023-02-19T04:20:59;101153.85;;;18.39;38.72
66396;BME280;53207;51.378;-1.342;2023-02-19T04:23:32;101154.33;;;18.62;38.72
66396;BME280;53207;51.378;-1.342;2023-02-19T04:26:02;101155.19;;;18.27;38.79
66396;BME280;53207;51.378;-1.342;2023-02-19T04:28:30;101158.53;;;18.68;38.86
66396;BME280;53207;51.378;-1.342;2023-02-19T04:30:57;101161.38;;;18.75;38.73
66396;BME280;53207;51.378;-1.342;2023-02-19T04:33:24;101162.38;;;18.82;38.61
66396;BME280;53207;51.378;-1.342;2023-02-19T04:35:51;101164.25;;;18.79;38.62
66396;BME280;53207;51.378;-1.342;2023-02-19T04:38:19;101169.45;;;18.81;38.56
66396;BME280;53207;51.378;-1.342;2023-02-19T04:40:46;101175.73;;;18.39;38.81
66396;BME280;53207;51.378;-1.342;2023-02-19T04:43:13;101182.78;;;18.67;38.71
66396;BME280;53207;51.378;-1.342;2023-02-19T04:45:41;101183.52;;;18.66;38.71
66396;BME280;53207;51.378;-1.342;2023-02-19T04:48:08;101183.42;;;18.62;38.72
66396;BME280;53207;51.378;-1.342;2023-02-19T04:50:37;101178.40;;;18.44;38.63
66396;BME280;53207;51.378;-1.342;2023-02-19T04:53:04;101182.02;;;18.63;38.67
66396;BME280;53207;51.378;-1.342;2023-02-19T04:55:36;101181.35;;;18.51;38.80
66396;BME280;53207;51.378;-1.342;2023-02-19T04:58:03;101180.04;;;18.55;38.70
66396;BME280;53207;51.378;-1.342;2023-02-19T05:00:30;101190.34;;;18.57;38.65
66396;BME280;53207;51.378;-1.342;2023-02-19T05:02:57;101196.82;;;18.53;38.69
66396;BME280;53207;51.378;-1.342;2023-02-19T05:05:24;101203.38;;;18.11;38.58
66396;BME280;53207;51.378;-1.342;2023-02-19T05:07:52;101201.25;;;18.41;38.81
66396;BME280;53207;51.378;-1.342;2023-02-19T05:10:19;101204.17;;;18.41;38.79
66396;BME280;53207;51.378;-1.342;2023-02-19T05:12:46;101208.88;;;18.51;38.65
66396;BME280;53207;51.378;-1.342;2023-02-19T05:15:14;101206.08;;;18.52;38.61
66396;BME280;53207;51.378;-1.342;2023-02-19T05:17:41;101207.00;;;18.48;38.63
66396;BME280;53207;51.378;-1.342;2023-02-19T05:20:09;101210.82;;;18.46;38.63
66396;BME280;53207;51.378;-1.342;2023-02-19T05:22:36;101209.19;;;18.44;38.65
66396;BME280;53207;51.378;-1.342;2023-02-19T05:25:04;101210.45;;;18.54;38.46
66396;BME280;53207;51.378;-1.342;2023-02-19T05:27:31;101213.99;;;18.23;38.58
66396;BME280;53207;51.378;-1.342;2023-02-19T05:29:58;101214.29;;;18.13;38.65
66396;BME280;53207;51.378;-1.342;2023-02-19T05:32:26;101215.45;;;18.42;38.57
66396;BME280;53207;51.378;-1.342;2023-02-19T05:34:53;101223.88;;;18.44;38.49
66396;BME280;53207;51.378;-1.342;2023-02-19T05:37:25;101226.86;;;18.35;38.56
66396;BME280;53207;51.378;-1.342;2023-02-19T05:39:53;101241.18;;;18.32;38.57
66396;BME280;53207;51.378;-1.342;2023-02-19T05:42:20;101244.82;;;18.29;38.60
66396;BME280;53207;51.378;-1.342;2023-02-19T05:44:48;101251.45;;;18.32;38.53
66396;BME280;53207;51.378;-1.342;2023-02-19T05:47:15;101247.52;;;18.28;38.56
66396;BME280;53207;51.378;-1.342;2023-02-19T05:49:42;101242.47;;;18.10;38.51
66396;BME280;53207;51.378;-1.342;2023-02-19T05:52:10;101247.19;;;18.03;38.58
66396;BME280;53207;51.378;-1.342;2023-02-19T05:54:37;101241.28;;;18.19;38.65
66396;BME280;53207;51.378;-1.342;2023-02-19T05:57:04;101235.40;;;18.23;38.56
66396;BME280;53207;51.378;-1.342;2023-02-19T05:59:32;101234.71;;;18.14;38.69
66396;BME280;53207;51.378;-1.342;2023-02-19T06:01:59;101240.90;;;18.18;38.58
66396;BME280;53207;51.378;-1.342;2023-02-19T06:04:26;101244.08;;;18.21;38.52
66396;BME280;53207;51.378;-1.342;2023-02-19T06:06:53;101252.50;;;18.17;38.55
66396;BME280;53207;51.378;-1.342;2023-02-19T06:09:21;101249.31;;;18.19;38.49
66396;BME280;53207;51.378;-1.342;2023-02-19T06:11:48;101252.43;;;18.12;38.56
66396;BME280;53207;51.378;-1.342;2023-02-19T06:14:15;101252.77;;;18.19;38.48
66396;BME280;53207;51.378;-1.342;2023-02-19T06:16:43;101258.36;;;18.11;38.54
66396;BME280;53207;51.378;-1.342;2023-02-19T06:19:10;101267.35;;;18.08;38.55
66396;BME280;53207;51.378;-1.342;2023-02-19T06:21:38;101265.65;;;18.04;38.60
66396;BME280;53207;51.378;-1.342;2023-02-19T06:24:06;101268.52;;;18.05;38.55
66396;BME280;53207;51.378;-1.342;2023-02-19T06:26:33;101270.94;;;18.06;38.50
66396;BME280;53207;51.378;-1.342;2023-02-19T06:29:01;101275.70;;;18.05;38.54
66396;BME280;53207;51.378;-1.342;2023-02-19T06:31:29;101273.18;;;18.04;38.54
66396;BME280;53207;51.378;-1.342;2023-02-19T06:33:56;101283.71;;;17.94;38.62
66396;BME280;53207;51.378;-1.342;2023-02-19T06:36:23;101294.58;;;17.98;38.55
66396;BME280;53207;51.378;-1.342;2023-02-19T06:38:51;101296.58;;;17.94;38.60
66396;BME280;53207;51.378;-1.342;2023-02-19T06:41:18;101289.62;;;18.22;38.55
66396;BME280;53207;51.378;-1.342;2023-02-19T06:43:45;101286.41;;;17.93;38.56
66396;BME280;53207;51.378;-1.342;2023-02-19T06:46:13;101287.67;;;17.93;38.55
66396;BME280;53207;51.378;-1.342;2023-02-19T06:48:42;101287.12;;;17.95;38.51
66396;BME280;53207;51.378;-1.342;2023-02-19T06:51:12;101292.52;;;18.00;38.41
66396;BME280;53207;51.378;-1.342;2023-02-19T06:53:39;101289.36;;;18.02;38.35
66396;BME280;53207;51.378;-1.342;2023-02-19T06:56:21;101287.32;;;17.98;38.42
66396;BME280;53207;51.378;-1.342;2023-02-19T06:58:49;101283.97;;;17.95;38.44
66396;BME280;53207;51.378;-1.342;2023-02-19T07:01:16;101272.54;;;17.92;38.45
66396;BME280;53207;51.378;-1.342;2023-02-19T07:03:43;101282.93;;;17.87;38.47
66396;BME280;53207;51.378;-1.342;2023-02-19T07:06:11;101305.42;;;18.01;38.30
66396;BME280;53207;51.378;-1.342;2023-02-19T07:08:38;101327.61;;;18.20;38.16
66396;BME280;53207;51.378;-1.342;2023-02-19T07:11:06;101338.81;;;18.29;38.16
66396;BME280;53207;51.378;-1.342;2023-02-19T07:13:33;101338.63;;;18.35;38.26
66396;BME280;53207;51.378;-1.342;2023-02-19T07:16:03;101326.70;;;18.47;38.21
66396;BME280;53207;51.378;-1.342;2023-02-19T07:18:31;101320.47;;;18.60;38.50
66396;BME280;53207;51.378;-1.342;2023-02-19T07:21:02;101321.42;;;18.72;38.72
66396;BME280;53207;51.378;-1.342;2023-02-19T07:23:29;101326.65;;;18.66;38.82
66396;BME280;53207;51.378;-1.342;2023-02-19T07:25:57;101334.92;;;19.01;38.89
66396;BME280;53207;51.378;-1.342;2023-02-19T07:28:23;101339.42;;;18.61;38.95
66396;BME280;53207;51.378;-1.342;2023-02-19T07:30:51;101341.80;;;19.24;38.95
66396;BME280;53207;51.378;-1.342;2023-02-19T07:33:18;101341.85;;;19.40;38.83
66396;BME280;53207;51.378;-1.342;2023-02-19T07:35:46;101338.86;;;19.30;38.74
66396;BME280;53207;51.378;-1.342;2023-02-19T07:38:15;101333.06;;;19.15;38.69
66396;BME280;53207;51.378;-1.342;2023-02-19T07:40:49;101335.59;;;19.28;38.59
66396;BME280;53207;51.378;-1.342;2023-02-19T07:43:16;101335.73;;;19.66;38.53
66396;BME280;53207;51.378;-1.342;2023-02-19T07:45:43;101331.25;;;19.26;38.45
66396;BME280;53207;51.378;-1.342;2023-02-19T07:48:11;101331.60;;;19.61;38.29
66396;BME280;53207;51.378;-1.342;2023-02-19T07:50:38;101337.46;;;19.45;38.21
66396;BME280;53207;51.378;-1.342;2023-02-19T07:53:05;101344.60;;;19.57;38.08
66396;BME280;53207;51.378;-1.342;2023-02-19T07:55:33;101349.52;;;19.79;38.06
66396;BME280;53207;51.378;-1.342;2023-02-19T07:58:01;101353.22;;;19.38;38.03
66396;BME280;53207;51.378;-1.342;2023-02-19T08:00:28;101361.12;;;19.83;38.00
66396;BME280;53207;51.378;-1.342;2023-02-19T08:02:55;101356.90;;;19.64;37.96
66396;BME280;53207;51.378;-1.342;2023-02-19T08:05:23;101353.37;;;19.88;37.95
66396;BME280;53207;51.378;-1.342;2023-02-19T08:07:50;101364.19;;;19.85;37.98
66396;BME280;53207;51.378;-1.342;2023-02-19T08:10:18;101373.17;;;19.89;37.91
66396;BME280;53207;51.378;-1.342;2023-02-19T08:12:45;101376.13;;;19.47;37.90
66396;BME280;53207;51.378;-1.342;2023-02-19T08:15:12;101384.05;;;19.91;38.05
66396;BME280;53207;51.378;-1.342;2023-02-19T08:17:39;101389.11;;;19.78;38.00
66396;BME280;53207;51.378;-1.342;2023-02-19T08:20:08;101393.64;;;19.77;38.03
66396;BME280;53207;51.378;-1.342;2023-02-19T08:22:35;101395.58;;;20.04;37.86
66396;BME280;53207;51.378;-1.342;2023-02-19T08:25:02;101397.70;;;19.56;37.84
66396;BME280;53207;51.378;-1.342;2023-02-19T08:27:29;101402.37;;;19.96;37.84
66396;BME280;53207;51.378;-1.342;2023-02-19T08:29:56;101403.01;;;20.00;37.70
66396;BME280;53207;51.378;-1.342;2023-02-19T08:32:24;101410.50;;;19.96;37.70
66396;BME280;53207;51.378;-1.342;2023-02-19T08:34:51;101413.29;;;19.75;37.61
66396;BME280;53207;51.378;-1.342;2023-02-19T08:37:18;101405.16;;;19.63;37.86
66396;BME280;53207;51.378;-1.342;2023-02-19T08:39:45;101405.04;;;19.87;37.78
66396;BME280;53207;51.378;-1.342;2023-02-19T08:42:12;101400.93;;;19.82;37.82
66396;BME280;53207;51.378;-1.342;2023-02-19T08:44:39;101404.05;;;19.85;37.82
66396;BME280;53207;51.378;-1.342;2023-02-19T08:47:07;101416.73;;;19.46;38.09
66396;BME280;53207;51.378;-1.342;2023-02-19T08:49:34;101425.80;;;19.74;37.93
66396;BME280;53207;51.378;-1.342;2023-02-19T08:52:01;101422.60;;;19.74;37.87
66396;BME280;53207;51.378;-1.342;2023-02-19T08:54:29;101420.10;;;19.74;37.85
66396;BME280;53207;51.378;-1.342;2023-02-19T08:56:57;101418.76;;;19.71;37.88
66396;BME280;53207;51.378;-1.342;2023-02-19T08:59:24;101429.16;;;19.71;37.89
66396;BME280;53207;51.378;-1.342;2023-02-19T09:01:54;101433.31;;;19.69;37.89
66396;BME280;53207;51.378;-1.342;2023-02-19T09:04:21;101438.28;;;19.44;37.94
66396;BME280;53207;51.378;-1.342;2023-02-19T09:06:48;101420.83;;;19.68;37.88
66396;BME280;53207;51.378;-1.342;2023-02-19T09:09:16;101414.22;;;19.64;37.90
66396;BME280;53207;51.378;-1.342;2023-02-19T09:11:43;101414.31;;;19.62;37.90
66396;BME280;53207;51.378;-1.342;2023-02-19T09:14:10;101421.67;;;19.65;37.83
66396;BME280;53207;51.378;-1.342;2023-02-19T09:16:38;101427.14;;;19.29;37.94
66396;BME280;53207;51.378;-1.342;2023-02-19T09:19:05;101438.31;;;19.56;37.86
66396;BME280;53207;51.378;-1.342;2023-02-19T09:21:32;101446.19;;;19.44;37.70
66396;BME280;53207;51.378;-1.342;2023-02-19T09:23:59;101442.59;;;19.37;37.79
66396;BME280;53207;51.378;-1.342;2023-02-19T09:26:27;101435.22;;;19.58;37.78
66396;BME280;53207;51.378;-1.342;2023-02-19T09:28:54;101433.60;;;19.53;37.87
66396;BME280;53207;51.378;-1.342;2023-02-19T09:31:21;101435.62;;;19.52;37.85
66396;BME280;53207;51.378;-1.342;2023-02-19T09:33:48;101451.11;;;19.44;37.96
66396;BME280;53207;51.378;-1.342;2023-02-19T09:36:17;101463.47;;;19.46;37.97
66396;BME280;53207;51.378;-1.342;2023-02-19T09:38:44;101470.43;;;19.54;37.86
66396;BME280;53207;51.378;-1.342;2023-02-19T09:41:17;101473.08;;;19.59;37.76
66396;BME280;53207;51.378;-1.342;2023-02-19T09:43:48;101476.93;;;19.67;37.67
66396;BME280;53207;51.378;-1.342;2023-02-19T09:46:24;101475.18;;;19.67;37.67
66396;BME280;53207;51.378;-1.342;2023-02-19T09:48:57;101470.24;;;19.70;37.64
66396;BME280;53207;51.378;-1.342;2023-02-19T09:51:28;101470.88;;;19.60;37.81
66396;BME280;53207;51.378;-1.342;2023-02-19T09:53:55;101477.66;;;19.69;37.68
66396;BME280;53207;51.378;-1.342;2023-02-19T09:56:24;101490.48;;;19.70;37.69
66396;BME280;53207;51.378;-1.342;2023-02-19T09:58:54;101498.26;;;19.66;37.84
66396;BME280;53207;51.378;-1.342;2023-02-19T10:01:25;101500.37;;;19.62;37.87
66396;BME280;53207;51.378;-1.342;2023-02-19T10:03:54;101496.64;;;19.68;37.84
66396;BME280;53207;51.378;-1.342;2023-02-19T10:06:24;101489.40;;;19.66;37.89
66396;BME280;53207;51.378;-1.342;2023-02-19T10:08:54;101492.71;;;19.40;37.90
66396;BME280;53207;51.378;-1.342;2023-02-19T10:11:22;101503.70;;;19.67;37.84
66396;BME280;53207;51.378;-1.342;2023-02-19T10:13:57;101512.01;;;19.66;37.82
66396;BME280;53207;51.378;-1.342;2023-02-19T10:16:30;101511.56;;;19.68;37.77
66396;BME280;53207;51.378;-1.342;2023-02-19T10:18:57;101505.40;;;19.66;37.76
66396;BME280;53207;51.378;-1.342;2023-02-19T10:21:26;101506.18;;;19.67;37.72
66396;BME280;53207;51.378;-1.342;2023-02-19T10:23:57;101503.55;;;19.65;37.69
66396;BME280;53207;51.378;-1.342;2023-02-19T10:26:26;101502.67;;;19.36;37.79
66396;BME280;53207;51.378;-1.342;2023-02-19T10:28:53;101515.48;;;19.54;37.80
66396;BME280;53207;51.378;-1.342;2023-02-19T10:31:22;101525.74;;;19.54;37.78
66396;BME280;53207;51.378;-1.342;2023-02-19T10:33:53;101530.71;;;19.49;37.85
66396;BME280;53207;51.378;-1.342;2023-02-19T10:36:25;101528.97;;;19.60;37.64
66396;BME280;53207;51.378;-1.342;2023-02-19T10:38:53;101525.19;;;19.16;37.63
66396;BME280;53207;51.378;-1.342;2023-02-19T10:41:22;101529.02;;;19.59;37.62
66396;BME280;53207;51.378;-1.342;2023-02-19T10:43:54;101530.16;;;19.55;37.65
66396;BME280;53207;51.378;-1.342;2023-02-19T10:46:24;101524.22;;;19.91;37.50
66396;BME280;53207;51.378;-1.342;2023-02-19T10:48:53;101524.70;;;19.54;37.60
66396;BME280;53207;51.378;-1.342;2023-02-19T10:51:30;101524.21;;;19.57;37.54
66396;BME280;53207;51.378;-1.342;2023-02-19T10:54:04;101523.17;;;19.57;37.53
66396;BME280;53207;51.378;-1.342;2023-02-19T10:56:32;101528.29;;;19.60;37.46
66396;BME280;53207;51.378;-1.342;2023-02-19T10:59:23;101534.40;;;19.56;37.48
66396;BME280;53207;51.378;-1.342;2023-02-19T11:01:56;101531.93;;;19.60;37.40
66396;BME280;53207;51.378;-1.342;2023-02-19T11:04:26;101523.48;;;19.58;37.39
66396;BME280;53207;51.378;-1.342;2023-02-19T11:06:54;101522.78;;;19.53;37.45
66396;BME280;53207;51.378;-1.342;2023-02-19T11:09:26;101521.83;;;19.52;37.43
66396;BME280;53207;51.378;-1.342;2023-02-19T11:11:59;101521.05;;;19.56;37.35
66396;BME280;53207;51.378;-1.342;2023-02-19T11:14:29;101519.35;;;19.83;37.33
66396;BME280;53207;51.378;-1.342;2023-02-19T11:16:59;101526.21;;;19.47;37.40
66396;BME280;53207;51.378;-1.342;2023-02-19T11:19:30;101523.51;;;19.33;37.25
66396;BME280;53207;51.378;-1.342;2023-02-19T11:22:00;101525.83;;;19.44;37.38
66396;BME280;53207;51.378;-1.342;2023-02-19T11:24:32;101516.26;;;19.51;37.24
66396;BME280;53207;51.378;-1.342;2023-02-19T11:27:02;101509.90;;;19.42;37.33
66396;BME280;53207;51.378;-1.342;2023-02-19T11:29:31;101512.26;;;19.53;37.18
66396;BME280;53207;51.378;-1.342;2023-02-19T11:32:21;101514.85;;;19.38;37.32
66396;BME280;53207;51.378;-1.342;2023-02-19T11:34:49;101524.63;;;19.45;37.25
66396;BME280;53207;51.378;-1.342;2023-02-19T11:37:18;101529.39;;;19.19;37.20
66396;BME280;53207;51.378;-1.342;2023-02-19T11:39:47;101512.61;;;19.44;37.16
66396;BME280;53207;51.378;-1.342;2023-02-19T11:42:25;101514.75;;;19.27;37.06
66396;BME280;53207;51.378;-1.342;2023-02-19T11:45:25;101519.24;;;19.35;37.19
66396;BME280;53207;51.378;-1.342;2023-02-19T11:48:08;101526.88;;;19.64;37.16
66396;BME280;53207;51.378;-1.342;2023-02-19T11:50:50;101520.43;;;19.32;37.17
66396;BME280;53207;51.378;-1.342;2023-02-19T11:53:23;101511.81;;;19.36;37.07
66396;BME280;53207;51.378;-1.342;2023-02-19T11:56:01;101520.59;;;19.33;37.23
66396;BME280;53207;51.378;-1.342;2023-02-19T11:59:00;101523.61;;;19.49;37.21
66396;BME280;53207;51.378;-1.342;2023-02-19T12:02:45;101529.82;;;19.30;37.06
66396;BME280;53207;51.378;-1.342;2023-02-19T12:05:30;101525.27;;;19.04;36.76
66396;BME280;53207;51.378;-1.342;2023-02-19T12:08:15;101517.54;;;18.63;36.75
66396;BME280;53207;51.378;-1.342;2023-02-19T12:10:57;101507.07;;;18.64;36.60
66396;BME280;53207;51.378;-1.342;2023-02-19T12:13:34;101504.44;;;18.61;36.72
66396;BME280;53207;51.378;-1.342;2023-02-19T12:16:16;101500.43;;;18.99;36.61
66396;BME280;53207;51.378;-1.342;2023-02-19T12:19:06;101499.06;;;18.99;36.59
66396;BME280;53207;51.378;-1.342;2023-02-19T12:21:50;101490.20;;;18.38;36.34
66396;BME280;53207;51.378;-1.342;2023-02-19T12:24:43;101484.33;;;18.34;36.05
66396;BME280;53207;51.378;-1.342;2023-02-19T12:27:23;101485.21;;;17.88;36.12
66396;BME280;53207;51.378;-1.342;2023-02-19T12:30:07;101483.59;;;18.13;35.72
66396;BME280;53207;51.378;-1.342;2023-02-19T12:32:51;101467.83;;;17.51;35.90
66396;BME280;53207;51.378;-1.342;2023-02-19T12:35:38;101459.93;;;18.17;35.81
66396;BME280;53207;51.378;-1.342;2023-02-19T12:38:18;101455.07;;;18.27;35.65
66396;BME280;53207;51.378;-1.342;2023-02-19T12:41:00;101447.78;;;18.03;36.00
66396;BME280;53207;51.378;-1.342;2023-02-19T12:43:32;101447.85;;;18.33;35.63
66396;BME280;53207;51.378;-1.342;2023-02-19T12:46:03;101442.30;;;18.38;35.71
66396;BME280;53207;51.378;-1.342;2023-02-19T12:48:37;101434.85;;;18.26;35.81
66396;BME280;53207;51.378;-1.342;2023-02-19T12:51:11;101435.80;;;18.23;35.71
66396;BME280;53207;51.378;-1.342;2023-02-19T12:53:47;101434.91;;;18.32;35.57
66396;BME280;53207;51.378;-1.342;2023-02-19T12:56:19;101434.72;;;18.26;35.56
66396;BME280;53207;51.378;-1.342;2023-02-19T12:58:52;101427.61;;;18.03;35.59